sensor_id;sensor_type;location;lat;lon;timestamp;temperature;humidity
38910;DHT22;24676;51.360;12.354;2023-01-09T00:00:19;6.20;99.90
38910;DHT22;24676;51.360;12.354;2023-01-09T00:03:03;6.20;99.90
38910;DHT22;24676;51.360;12.354;2023-01-09T00:05:48;6.30;99.90
38910;DHT22;24676;51.360;12.354;2023-01-09T00:08:32;6.30;99.90
38910;DHT22;24676;51.360;12.354;2023-01-09T00:11:16;6.30;99.90
38910;DHT22;24676;51.360;12.354;2023-01-09T00:14:01;6.30;99.90
38910;DHT22;24676;51.360;12.354;2023-01-09T00:16:45;6.30;99.90
38910;DHT22;24676;51.360;12.354;2023-01-09T00:19:49;6.40;99.90
38910;DHT22;24676;51.360;12.354;2023-01-09T00:22:34;6.40;99.90
38910;DHT22;24676;51.360;12.354;2023-01-09T00:25:19;6.40;99.90
38910;DHT22;24676;51.360;12.354;2023-01-09T00:28:03;6.30;99.90
38910;DHT22;24676;51.360;12.354;2023-01-09T00:30:55;6.40;99.90
38910;DHT22;24676;51.360;12.354;2023-01-09T00:33:43;6.40;99.90
38910;DHT22;24676;51.360;12.354;2023-01-09T00:36:28;6.40;99.90
38910;DHT22;24676;51.360;12.354;2023-01-09T00:39:13;6.40;99.90
38910;DHT22;24676;51.360;12.354;2023-01-09T00:41:57;6.40;99.90
38910;DHT22;24676;51.360;12.354;2023-01-09T00:44:48;6.50;99.90
38910;DHT22;24676;51.360;12.354;2023-01-09T00:47:40;6.50;99.90
38910;DHT22;24676;51.360;12.354;2023-01-09T00:50:28;6.50;99.90
38910;DHT22;24676;51.360;12.354;2023-01-09T00:53:17;6.60;99.90
38910;DHT22;24676;51.360;12.354;2023-01-09T00:56:05;6.60;99.90
38910;DHT22;24676;51.360;12.354;2023-01-09T00:58:50;6.60;99.90
38910;DHT22;24676;51.360;12.354;2023-01-09T01:01:35;6.50;99.90
38910;DHT22;24676;51.360;12.354;2023-01-09T01:04:19;6.50;99.90
38910;DHT22;24676;51.360;12.354;2023-01-09T01:07:22;6.50;99.90
38910;DHT22;24676;51.360;12.354;2023-01-09T01:10:23;6.50;99.90
38910;DHT22;24676;51.360;12.354;2023-01-09T01:13:08;6.50;99.90
38910;DHT22;24676;51.360;12.354;2023-01-09T01:15:53;6.50;99.90
38910;DHT22;24676;51.360;12.354;2023-01-09T01:18:37;6.50;99.90
38910;DHT22;24676;51.360;12.354;2023-01-09T01:21:21;6.50;99.90
38910;DHT22;24676;51.360;12.354;2023-01-09T01:24:05;6.50;99.90
38910;DHT22;24676;51.360;12.354;2023-01-09T01:26:50;6.50;99.90
38910;DHT22;24676;51.360;12.354;2023-01-09T01:29:34;6.50;99.90
38910;DHT22;24676;51.360;12.354;2023-01-09T01:32:18;6.60;99.90
38910;DHT22;24676;51.360;12.354;2023-01-09T01:35:03;6.60;99.90
38910;DHT22;24676;51.360;12.354;2023-01-09T01:37:48;6.60;99.90
38910;DHT22;24676;51.360;12.354;2023-01-09T01:40:32;6.60;99.90
38910;DHT22;24676;51.360;12.354;2023-01-09T01:43:17;6.60;99.90
38910;DHT22;24676;51.360;12.354;2023-01-09T01:46:02;6.80;99.90
38910;DHT22;24676;51.360;12.354;2023-01-09T01:48:48;6.80;99.90
38910;DHT22;24676;51.360;12.354;2023-01-09T01:51:38;6.80;99.90
38910;DHT22;24676;51.360;12.354;2023-01-09T01:54:25;6.80;99.90
38910;DHT22;24676;51.360;12.354;2023-01-09T01:57:11;6.80;99.90
38910;DHT22;24676;51.360;12.354;2023-01-09T01:59:56;6.80;99.90
38910;DHT22;24676;51.360;12.354;2023-01-09T02:02:42;6.90;99.90
38910;DHT22;24676;51.360;12.354;2023-01-09T02:05:28;6.80;99.90
38910;DHT22;24676;51.360;12.354;2023-01-09T02:08:13;6.80;99.90
38910;DHT22;24676;51.360;12.354;2023-01-09T02:10:58;6.90;99.90
38910;DHT22;24676;51.360;12.354;2023-01-09T02:13:43;6.90;99.90
38910;DHT22;24676;51.360;12.354;2023-01-09T02:16:56;6.90;99.90
38910;DHT22;24676;51.360;12.354;2023-01-09T02:34:38;7.10;99.90
38910;DHT22;24676;51.360;12.354;2023-01-09T02:37:35;7.10;99.90
38910;DHT22;24676;51.360;12.354;2023-01-09T02:40:48;7.10;99.90
38910;DHT22;24676;51.360;12.354;2023-01-09T02:43:33;7.00;99.90
38910;DHT22;24676;51.360;12.354;2023-01-09T02:46:21;6.90;99.90
38910;DHT22;24676;51.360;12.354;2023-01-09T02:49:06;6.80;99.90
38910;DHT22;24676;51.360;12.354;2023-01-09T02:51:52;6.70;99.90
38910;DHT22;24676;51.360;12.354;2023-01-09T02:54:50;6.70;99.90
38910;DHT22;24676;51.360;12.354;2023-01-09T03:03:51;6.50;99.90
38910;DHT22;24676;51.360;12.354;2023-01-09T03:06:58;6.50;99.90
38910;DHT22;24676;51.360;12.354;2023-01-09T03:09:46;6.40;99.90
38910;DHT22;24676;51.360;12.354;2023-01-09T03:12:32;6.40;99.90
38910;DHT22;24676;51.360;12.354;2023-01-09T03:15:17;6.50;99.90
38910;DHT22;24676;51.360;12.354;2023-01-09T03:18:05;6.50;99.90
38910;DHT22;24676;51.360;12.354;2023-01-09T03:20:51;6.50;99.90
38910;DHT22;24676;51.360;12.354;2023-01-09T03:23:53;6.50;99.90
38910;DHT22;24676;51.360;12.354;2023-01-09T03:26:38;6.50;99.90
38910;DHT22;24676;51.360;12.354;2023-01-09T03:29:22;6.50;99.90
38910;DHT22;24676;51.360;12.354;2023-01-09T03:32:07;6.50;99.90
38910;DHT22;24676;51.360;12.354;2023-01-09T03:34:51;6.50;99.90
38910;DHT22;24676;51.360;12.354;2023-01-09T03:37:35;6.50;99.90
38910;DHT22;24676;51.360;12.354;2023-01-09T03:40:19;6.50;99.90
38910;DHT22;24676;51.360;12.354;2023-01-09T03:43:04;6.50;99.90
38910;DHT22;24676;51.360;12.354;2023-01-09T03:45:48;6.50;99.90
38910;DHT22;24676;51.360;12.354;2023-01-09T03:48:32;6.50;99.90
38910;DHT22;24676;51.360;12.354;2023-01-09T03:51:17;6.50;99.90
38910;DHT22;24676;51.360;12.354;2023-01-09T03:54:01;6.50;99.90
38910;DHT22;24676;51.360;12.354;2023-01-09T03:56:44;6.50;99.90
38910;DHT22;24676;51.360;12.354;2023-01-09T03:59:29;6.50;99.90
38910;DHT22;24676;51.360;12.354;2023-01-09T04:02:13;6.60;99.90
38910;DHT22;24676;51.360;12.354;2023-01-09T04:04:57;6.50;99.90
38910;DHT22;24676;51.360;12.354;2023-01-09T04:07:42;6.50;99.90
38910;DHT22;24676;51.360;12.354;2023-01-09T04:10:26;6.50;99.90
38910;DHT22;24676;51.360;12.354;2023-01-09T04:13:11;6.50;99.90
38910;DHT22;24676;51.360;12.354;2023-01-09T04:15:55;6.50;99.90
38910;DHT22;24676;51.360;12.354;2023-01-09T04:18:39;6.50;99.90
38910;DHT22;24676;51.360;12.354;2023-01-09T04:21:23;6.50;99.90
38910;DHT22;24676;51.360;12.354;2023-01-09T04:24:07;6.50;99.90
38910;DHT22;24676;51.360;12.354;2023-01-09T04:26:52;6.50;99.90
38910;DHT22;24676;51.360;12.354;2023-01-09T04:29:36;6.50;99.90
38910;DHT22;24676;51.360;12.354;2023-01-09T04:32:20;6.50;99.90
38910;DHT22;24676;51.360;12.354;2023-01-09T04:35:05;6.50;99.90
38910;DHT22;24676;51.360;12.354;2023-01-09T04:37:50;6.60;99.90
38910;DHT22;24676;51.360;12.354;2023-01-09T04:40:34;6.50;99.90
38910;DHT22;24676;51.360;12.354;2023-01-09T04:43:18;6.50;99.90
38910;DHT22;24676;51.360;12.354;2023-01-09T04:46:02;6.60;99.90
38910;DHT22;24676;51.360;12.354;2023-01-09T04:48:46;6.60;99.90
38910;DHT22;24676;51.360;12.354;2023-01-09T04:51:30;6.50;99.90
38910;DHT22;24676;51.360;12.354;2023-01-09T04:54:15;6.50;99.90
38910;DHT22;24676;51.360;12.354;2023-01-09T04:56:59;6.60;99.90
38910;DHT22;24676;51.360;12.354;2023-01-09T04:59:44;6.60;99.90
38910;DHT22;24676;51.360;12.354;2023-01-09T05:02:28;6.50;99.90
38910;DHT22;24676;51.360;12.354;2023-01-09T05:05:12;6.60;99.90
38910;DHT22;24676;51.360;12.354;2023-01-09T05:07:57;6.50;99.90
38910;DHT22;24676;51.360;12.354;2023-01-09T05:10:41;6.50;99.90
38910;DHT22;24676;51.360;12.354;2023-01-09T05:13:25;6.50;99.90
38910;DHT22;24676;51.360;12.354;2023-01-09T05:16:10;6.50;99.90
38910;DHT22;24676;51.360;12.354;2023-01-09T05:18:54;6.50;99.90
38910;DHT22;24676;51.360;12.354;2023-01-09T05:21:40;6.50;99.90
38910;DHT22;24676;51.360;12.354;2023-01-09T05:24:24;6.50;99.90
38910;DHT22;24676;51.360;12.354;2023-01-09T05:27:08;6.60;99.90
38910;DHT22;24676;51.360;12.354;2023-01-09T05:29:53;6.50;99.90
38910;DHT22;24676;51.360;12.354;2023-01-09T05:32:37;6.50;99.90
38910;DHT22;24676;51.360;12.354;2023-01-09T05:35:21;6.50;99.90
38910;DHT22;24676;51.360;12.354;2023-01-09T05:38:06;6.50;99.90
38910;DHT22;24676;51.360;12.354;2023-01-09T05:40:50;6.50;99.90
38910;DHT22;24676;51.360;12.354;2023-01-09T05:43:35;6.60;99.90
38910;DHT22;24676;51.360;12.354;2023-01-09T05:46:19;6.60;99.90
38910;DHT22;24676;51.360;12.354;2023-01-09T05:49:03;6.60;99.90
38910;DHT22;24676;51.360;12.354;2023-01-09T05:51:47;6.60;99.90
38910;DHT22;24676;51.360;12.354;2023-01-09T05:54:31;6.50;99.90
38910;DHT22;24676;51.360;12.354;2023-01-09T05:57:15;6.50;99.90
38910;DHT22;24676;51.360;12.354;2023-01-09T05:59:59;6.50;99.90
38910;DHT22;24676;51.360;12.354;2023-01-09T06:02:43;6.50;99.90
38910;DHT22;24676;51.360;12.354;2023-01-09T06:05:28;6.50;99.90
38910;DHT22;24676;51.360;12.354;2023-01-09T06:08:12;6.50;99.90
38910;DHT22;24676;51.360;12.354;2023-01-09T06:10:56;6.50;99.90
38910;DHT22;24676;51.360;12.354;2023-01-09T06:13:40;6.60;99.90
38910;DHT22;24676;51.360;12.354;2023-01-09T06:16:25;6.60;99.90
38910;DHT22;24676;51.360;12.354;2023-01-09T06:19:09;6.60;99.90
38910;DHT22;24676;51.360;12.354;2023-01-09T06:21:53;6.60;99.90
38910;DHT22;24676;51.360;12.354;2023-01-09T06:24:38;6.60;99.90
38910;DHT22;24676;51.360;12.354;2023-01-09T06:27:22;6.60;99.90
38910;DHT22;24676;51.360;12.354;2023-01-09T06:30:07;6.60;99.90
38910;DHT22;24676;51.360;12.354;2023-01-09T06:32:51;6.60;99.90
38910;DHT22;24676;51.360;12.354;2023-01-09T06:35:36;6.50;99.90
38910;DHT22;24676;51.360;12.354;2023-01-09T06:38:20;6.60;99.90
38910;DHT22;24676;51.360;12.354;2023-01-09T06:41:04;6.60;99.90
38910;DHT22;24676;51.360;12.354;2023-01-09T06:43:49;6.60;99.90
38910;DHT22;24676;51.360;12.354;2023-01-09T06:46:33;6.60;99.90
38910;DHT22;24676;51.360;12.354;2023-01-09T06:49:18;6.60;99.90
38910;DHT22;24676;51.360;12.354;2023-01-09T06:52:06;6.60;99.90
38910;DHT22;24676;51.360;12.354;2023-01-09T06:54:50;6.70;99.90
38910;DHT22;24676;51.360;12.354;2023-01-09T06:57:34;6.70;99.90
38910;DHT22;24676;51.360;12.354;2023-01-09T07:00:19;6.70;99.90
38910;DHT22;24676;51.360;12.354;2023-01-09T07:03:04;6.70;99.90
38910;DHT22;24676;51.360;12.354;2023-01-09T07:05:48;6.70;99.90
38910;DHT22;24676;51.360;12.354;2023-01-09T07:08:33;6.70;99.90
38910;DHT22;24676;51.360;12.354;2023-01-09T07:11:17;6.70;99.90
38910;DHT22;24676;51.360;12.354;2023-01-09T07:14:01;6.70;99.90
38910;DHT22;24676;51.360;12.354;2023-01-09T07:16:45;6.70;99.90
38910;DHT22;24676;51.360;12.354;2023-01-09T07:19:30;6.80;99.90
38910;DHT22;24676;51.360;12.354;2023-01-09T07:22:14;6.80;99.90
38910;DHT22;24676;51.360;12.354;2023-01-09T07:24:58;6.80;99.90
38910;DHT22;24676;51.360;12.354;2023-01-09T07:27:43;6.80;99.90
38910;DHT22;24676;51.360;12.354;2023-01-09T07:30:27;6.90;99.90
38910;DHT22;24676;51.360;12.354;2023-01-09T07:33:11;7.00;99.90
38910;DHT22;24676;51.360;12.354;2023-01-09T07:35:55;7.00;99.90
38910;DHT22;24676;51.360;12.354;2023-01-09T07:38:39;7.00;99.90
38910;DHT22;24676;51.360;12.354;2023-01-09T07:41:23;7.10;99.90
38910;DHT22;24676;51.360;12.354;2023-01-09T07:44:07;7.10;99.90
38910;DHT22;24676;51.360;12.354;2023-01-09T07:46:52;7.20;99.90
38910;DHT22;24676;51.360;12.354;2023-01-09T07:49:36;7.30;99.90
38910;DHT22;24676;51.360;12.354;2023-01-09T07:52:20;7.40;99.90
38910;DHT22;24676;51.360;12.354;2023-01-09T07:55:05;7.40;99.90
38910;DHT22;24676;51.360;12.354;2023-01-09T07:57:50;7.50;99.90
38910;DHT22;24676;51.360;12.354;2023-01-09T08:00:34;7.40;99.90
38910;DHT22;24676;51.360;12.354;2023-01-09T08:03:19;7.50;99.90
38910;DHT22;24676;51.360;12.354;2023-01-09T08:06:03;7.50;99.90
38910;DHT22;24676;51.360;12.354;2023-01-09T08:08:47;7.60;99.90
38910;DHT22;24676;51.360;12.354;2023-01-09T08:11:31;7.70;99.90
38910;DHT22;24676;51.360;12.354;2023-01-09T08:14:16;7.80;99.90
38910;DHT22;24676;51.360;12.354;2023-01-09T08:17:00;7.90;99.90
38910;DHT22;24676;51.360;12.354;2023-01-09T08:19:45;8.00;99.90
38910;DHT22;24676;51.360;12.354;2023-01-09T08:22:29;8.10;99.90
38910;DHT22;24676;51.360;12.354;2023-01-09T08:25:14;8.10;99.90
38910;DHT22;24676;51.360;12.354;2023-01-09T08:27:58;8.20;99.90
38910;DHT22;24676;51.360;12.354;2023-01-09T08:30:42;8.20;99.90
38910;DHT22;24676;51.360;12.354;2023-01-09T08:33:27;8.10;99.90
38910;DHT22;24676;51.360;12.354;2023-01-09T08:36:12;8.10;99.90
38910;DHT22;24676;51.360;12.354;2023-01-09T08:38:56;8.10;99.90
38910;DHT22;24676;51.360;12.354;2023-01-09T08:41:40;8.10;99.90
38910;DHT22;24676;51.360;12.354;2023-01-09T08:44:43;8.00;99.90
38910;DHT22;24676;51.360;12.354;2023-01-09T08:47:46;8.10;99.90
38910;DHT22;24676;51.360;12.354;2023-01-09T08:50:31;8.10;99.90
38910;DHT22;24676;51.360;12.354;2023-01-09T08:53:15;8.10;99.90
38910;DHT22;24676;51.360;12.354;2023-01-09T08:56:00;8.10;99.90
38910;DHT22;24676;51.360;12.354;2023-01-09T08:58:44;8.10;99.90
38910;DHT22;24676;51.360;12.354;2023-01-09T09:01:28;8.10;99.90
38910;DHT22;24676;51.360;12.354;2023-01-09T09:04:12;8.20;99.90
38910;DHT22;24676;51.360;12.354;2023-01-09T09:06:57;8.30;99.90
38910;DHT22;24676;51.360;12.354;2023-01-09T09:09:41;8.30;99.90
38910;DHT22;24676;51.360;12.354;2023-01-09T09:12:25;8.40;99.90
38910;DHT22;24676;51.360;12.354;2023-01-09T09:15:10;8.40;99.90
38910;DHT22;24676;51.360;12.354;2023-01-09T09:18:08;8.60;99.90
38910;DHT22;24676;51.360;12.354;2023-01-09T09:20:53;8.60;99.90
38910;DHT22;24676;51.360;12.354;2023-01-09T09:23:37;8.60;99.90
38910;DHT22;24676;51.360;12.354;2023-01-09T09:26:21;8.60;99.90
38910;DHT22;24676;51.360;12.354;2023-01-09T09:29:05;8.60;99.90
38910;DHT22;24676;51.360;12.354;2023-01-09T09:31:49;8.70;99.90
38910;DHT22;24676;51.360;12.354;2023-01-09T09:34:34;8.80;99.90
38910;DHT22;24676;51.360;12.354;2023-01-09T09:37:18;8.90;99.90
38910;DHT22;24676;51.360;12.354;2023-01-09T09:40:04;9.10;99.90
38910;DHT22;24676;51.360;12.354;2023-01-09T09:43:03;9.40;99.90
38910;DHT22;24676;51.360;12.354;2023-01-09T09:49:29;10.30;99.90
38910;DHT22;24676;51.360;12.354;2023-01-09T09:55:34;10.60;99.90
38910;DHT22;24676;51.360;12.354;2023-01-09T09:58:44;10.90;99.90
38910;DHT22;24676;51.360;12.354;2023-01-09T10:01:37;11.60;99.90
38910;DHT22;24676;51.360;12.354;2023-01-09T10:04:25;11.80;99.90
38910;DHT22;24676;51.360;12.354;2023-01-09T10:07:23;11.90;99.90
38910;DHT22;24676;51.360;12.354;2023-01-09T10:10:30;12.40;99.90
38910;DHT22;24676;51.360;12.354;2023-01-09T10:13:17;12.70;99.90
38910;DHT22;24676;51.360;12.354;2023-01-09T10:16:27;12.80;99.80
38910;DHT22;24676;51.360;12.354;2023-01-09T10:19:33;12.80;99.70
38910;DHT22;24676;51.360;12.354;2023-01-09T10:22:45;12.70;96.00
38910;DHT22;24676;51.360;12.354;2023-01-09T10:37:29;10.80;99.90
38910;DHT22;24676;51.360;12.354;2023-01-09T10:46:24;11.70;99.90
38910;DHT22;24676;51.360;12.354;2023-01-09T10:49:14;11.80;97.30
38910;DHT22;24676;51.360;12.354;2023-01-09T10:55:13;12.00;95.50
38910;DHT22;24676;51.360;12.354;2023-01-09T10:58:12;12.10;94.10
38910;DHT22;24676;51.360;12.354;2023-01-09T11:00:57;12.00;92.20
38910;DHT22;24676;51.360;12.354;2023-01-09T11:03:44;11.90;91.80
38910;DHT22;24676;51.360;12.354;2023-01-09T11:06:42;12.00;94.50
38910;DHT22;24676;51.360;12.354;2023-01-09T11:09:27;11.80;92.10
38910;DHT22;24676;51.360;12.354;2023-01-09T11:12:33;11.30;94.40
38910;DHT22;24676;51.360;12.354;2023-01-09T11:18:18;11.10;96.50
38910;DHT22;24676;51.360;12.354;2023-01-09T11:21:23;10.50;99.70
38910;DHT22;24676;51.360;12.354;2023-01-09T11:27:22;9.70;99.90
38910;DHT22;24676;51.360;12.354;2023-01-09T11:30:19;9.50;99.90
38910;DHT22;24676;51.360;12.354;2023-01-09T11:33:20;9.40;99.90
38910;DHT22;24676;51.360;12.354;2023-01-09T11:36:12;9.30;99.90
38910;DHT22;24676;51.360;12.354;2023-01-09T11:38:58;9.20;99.90
38910;DHT22;24676;51.360;12.354;2023-01-09T11:41:43;9.10;99.90
38910;DHT22;24676;51.360;12.354;2023-01-09T11:44:29;9.00;99.90
38910;DHT22;24676;51.360;12.354;2023-01-09T11:47:36;8.90;99.90
38910;DHT22;24676;51.360;12.354;2023-01-09T11:50:26;8.90;99.90
38910;DHT22;24676;51.360;12.354;2023-01-09T11:53:15;9.10;99.90
38910;DHT22;24676;51.360;12.354;2023-01-09T11:56:01;9.40;99.90
38910;DHT22;24676;51.360;12.354;2023-01-09T11:58:46;9.60;99.90
38910;DHT22;24676;51.360;12.354;2023-01-09T12:04:58;9.60;99.90
38910;DHT22;24676;51.360;12.354;2023-01-09T12:11:32;9.40;99.90
38910;DHT22;24676;51.360;12.354;2023-01-09T12:14:40;9.50;99.90
38910;DHT22;24676;51.360;12.354;2023-01-09T12:20:28;10.20;99.90
38910;DHT22;24676;51.360;12.354;2023-01-09T12:26:24;11.00;99.90
38910;DHT22;24676;51.360;12.354;2023-01-09T12:35:49;10.90;99.90
38910;DHT22;24676;51.360;12.354;2023-01-09T12:50:37;11.40;99.90
38910;DHT22;24676;51.360;12.354;2023-01-09T12:53:32;11.60;98.60
38910;DHT22;24676;51.360;12.354;2023-01-09T12:56:23;11.80;96.30
38910;DHT22;24676;51.360;12.354;2023-01-09T12:59:24;12.10;94.90
38910;DHT22;24676;51.360;12.354;2023-01-09T13:02:22;12.00;95.20
38910;DHT22;24676;51.360;12.354;2023-01-09T13:05:29;11.80;96.50
38910;DHT22;24676;51.360;12.354;2023-01-09T13:08:36;11.50;98.10
38910;DHT22;24676;51.360;12.354;2023-01-09T13:17:29;9.70;99.90
38910;DHT22;24676;51.360;12.354;2023-01-09T13:26:28;9.10;99.90
38910;DHT22;24676;51.360;12.354;2023-01-09T13:29:32;9.20;99.90
38910;DHT22;24676;51.360;12.354;2023-01-09T13:35:33;9.80;99.90
38910;DHT22;24676;51.360;12.354;2023-01-09T13:38:20;9.90;99.90
38910;DHT22;24676;51.360;12.354;2023-01-09T13:41:14;9.50;99.90
38910;DHT22;24676;51.360;12.354;2023-01-09T13:44:19;9.20;99.90
38910;DHT22;24676;51.360;12.354;2023-01-09T13:47:31;9.20;99.90
38910;DHT22;24676;51.360;12.354;2023-01-09T13:50:24;9.20;99.90
38910;DHT22;24676;51.360;12.354;2023-01-09T13:56:06;9.00;99.90
38910;DHT22;24676;51.360;12.354;2023-01-09T14:01:38;8.90;99.90
38910;DHT22;24676;51.360;12.354;2023-01-09T14:04:33;8.80;99.90
38910;DHT22;24676;51.360;12.354;2023-01-09T14:10:17;8.80;99.90
38910;DHT22;24676;51.360;12.354;2023-01-09T14:13:13;8.70;99.90
38910;DHT22;24676;51.360;12.354;2023-01-09T14:16:25;8.70;99.90
38910;DHT22;24676;51.360;12.354;2023-01-09T14:19:20;8.60;99.90
38910;DHT22;24676;51.360;12.354;2023-01-09T14:22:16;8.60;99.90
38910;DHT22;24676;51.360;12.354;2023-01-09T14:25:08;8.50;99.90
38910;DHT22;24676;51.360;12.354;2023-01-09T14:33:36;8.40;99.90
38910;DHT22;24676;51.360;12.354;2023-01-09T14:36:21;8.40;99.90
38910;DHT22;24676;51.360;12.354;2023-01-09T14:39:11;8.50;99.90
38910;DHT22;24676;51.360;12.354;2023-01-09T14:41:59;8.50;99.90
38910;DHT22;24676;51.360;12.354;2023-01-09T14:45:04;8.40;99.90
38910;DHT22;24676;51.360;12.354;2023-01-09T14:47:59;8.20;99.90
38910;DHT22;24676;51.360;12.354;2023-01-09T14:50:51;8.10;99.90
38910;DHT22;24676;51.360;12.354;2023-01-09T14:53:38;8.00;99.90
38910;DHT22;24676;51.360;12.354;2023-01-09T14:56:29;8.00;99.90
38910;DHT22;24676;51.360;12.354;2023-01-09T14:59:14;7.90;99.90
38910;DHT22;24676;51.360;12.354;2023-01-09T15:01:58;7.80;99.90
38910;DHT22;24676;51.360;12.354;2023-01-09T15:04:42;7.80;99.90
38910;DHT22;24676;51.360;12.354;2023-01-09T15:07:28;7.70;99.90
38910;DHT22;24676;51.360;12.354;2023-01-09T15:10:19;7.60;99.90
38910;DHT22;24676;51.360;12.354;2023-01-09T15:13:06;7.50;99.90
38910;DHT22;24676;51.360;12.354;2023-01-09T15:15:54;7.40;99.90
38910;DHT22;24676;51.360;12.354;2023-01-09T15:18:41;7.30;99.90
38910;DHT22;24676;51.360;12.354;2023-01-09T15:21:27;7.20;99.90
38910;DHT22;24676;51.360;12.354;2023-01-09T15:24:23;7.10;99.90
38910;DHT22;24676;51.360;12.354;2023-01-09T15:27:13;7.00;99.90
38910;DHT22;24676;51.360;12.354;2023-01-09T15:30:14;6.90;99.90
38910;DHT22;24676;51.360;12.354;2023-01-09T15:33:00;6.80;99.90
38910;DHT22;24676;51.360;12.354;2023-01-09T15:35:49;6.70;99.90
38910;DHT22;24676;51.360;12.354;2023-01-09T15:38:35;6.70;99.90
38910;DHT22;24676;51.360;12.354;2023-01-09T15:41:25;6.60;99.90
38910;DHT22;24676;51.360;12.354;2023-01-09T15:44:28;6.50;99.90
38910;DHT22;24676;51.360;12.354;2023-01-09T15:47:22;6.50;99.90
38910;DHT22;24676;51.360;12.354;2023-01-09T15:50:12;6.60;99.90
38910;DHT22;24676;51.360;12.354;2023-01-09T15:52:56;6.70;99.90
38910;DHT22;24676;51.360;12.354;2023-01-09T15:55:40;6.80;99.90
38910;DHT22;24676;51.360;12.354;2023-01-09T15:58:36;6.80;99.90
38910;DHT22;24676;51.360;12.354;2023-01-09T16:01:24;6.90;99.90
38910;DHT22;24676;51.360;12.354;2023-01-09T16:04:12;7.00;99.90
38910;DHT22;24676;51.360;12.354;2023-01-09T16:06:57;7.00;99.90
38910;DHT22;24676;51.360;12.354;2023-01-09T16:09:47;7.10;99.90
38910;DHT22;24676;51.360;12.354;2023-01-09T16:12:32;7.10;99.90
38910;DHT22;24676;51.360;12.354;2023-01-09T16:15:18;7.20;99.90
38910;DHT22;24676;51.360;12.354;2023-01-09T16:24:18;7.30;99.90
38910;DHT22;24676;51.360;12.354;2023-01-09T16:27:31;7.30;99.90
38910;DHT22;24676;51.360;12.354;2023-01-09T16:30:25;7.30;99.90
38910;DHT22;24676;51.360;12.354;2023-01-09T16:33:19;7.30;99.90
38910;DHT22;24676;51.360;12.354;2023-01-09T16:36:04;7.30;99.90
38910;DHT22;24676;51.360;12.354;2023-01-09T16:38:49;7.30;99.90
38910;DHT22;24676;51.360;12.354;2023-01-09T16:41:33;7.30;99.90
38910;DHT22;24676;51.360;12.354;2023-01-09T16:44:36;7.30;99.90
38910;DHT22;24676;51.360;12.354;2023-01-09T16:47:20;7.30;99.90
38910;DHT22;24676;51.360;12.354;2023-01-09T16:50:04;7.30;99.90
38910;DHT22;24676;51.360;12.354;2023-01-09T16:52:49;7.30;99.90
38910;DHT22;24676;51.360;12.354;2023-01-09T16:55:33;7.30;99.90
38910;DHT22;24676;51.360;12.354;2023-01-09T16:58:22;7.30;99.90
38910;DHT22;24676;51.360;12.354;2023-01-09T17:01:07;7.30;99.90
38910;DHT22;24676;51.360;12.354;2023-01-09T17:03:53;7.30;99.90
38910;DHT22;24676;51.360;12.354;2023-01-09T17:06:38;7.40;99.90
38910;DHT22;24676;51.360;12.354;2023-01-09T17:09:23;7.40;99.90
38910;DHT22;24676;51.360;12.354;2023-01-09T17:12:16;7.40;99.90
38910;DHT22;24676;51.360;12.354;2023-01-09T17:15:02;7.30;99.90
38910;DHT22;24676;51.360;12.354;2023-01-09T17:17:47;7.30;99.90
38910;DHT22;24676;51.360;12.354;2023-01-09T17:20:33;7.20;99.90
38910;DHT22;24676;51.360;12.354;2023-01-09T17:23:17;7.10;99.90
38910;DHT22;24676;51.360;12.354;2023-01-09T17:26:03;7.00;99.90
38910;DHT22;24676;51.360;12.354;2023-01-09T17:29:06;6.90;99.90
38910;DHT22;24676;51.360;12.354;2023-01-09T17:31:50;6.80;99.90
38910;DHT22;24676;51.360;12.354;2023-01-09T17:34:35;6.70;99.90
38910;DHT22;24676;51.360;12.354;2023-01-09T17:37:19;6.60;99.90
38910;DHT22;24676;51.360;12.354;2023-01-09T17:40:25;6.60;99.90
38910;DHT22;24676;51.360;12.354;2023-01-09T17:43:09;6.60;99.90
38910;DHT22;24676;51.360;12.354;2023-01-09T17:45:54;6.50;99.90
38910;DHT22;24676;51.360;12.354;2023-01-09T17:48:39;6.40;99.90
38910;DHT22;24676;51.360;12.354;2023-01-09T17:51:23;6.30;99.90
38910;DHT22;24676;51.360;12.354;2023-01-09T17:54:08;6.30;99.90
38910;DHT22;24676;51.360;12.354;2023-01-09T17:56:52;6.20;99.90
38910;DHT22;24676;51.360;12.354;2023-01-09T17:59:37;6.20;99.90
38910;DHT22;24676;51.360;12.354;2023-01-09T18:02:21;6.20;99.90
38910;DHT22;24676;51.360;12.354;2023-01-09T18:05:06;6.10;99.90
38910;DHT22;24676;51.360;12.354;2023-01-09T18:07:50;6.10;99.90
38910;DHT22;24676;51.360;12.354;2023-01-09T18:10:35;6.20;99.90
38910;DHT22;24676;51.360;12.354;2023-01-09T18:13:20;6.20;99.90
38910;DHT22;24676;51.360;12.354;2023-01-09T18:16:10;6.30;99.90
38910;DHT22;24676;51.360;12.354;2023-01-09T18:18:55;6.40;99.90
38910;DHT22;24676;51.360;12.354;2023-01-09T18:21:40;6.50;99.90
38910;DHT22;24676;51.360;12.354;2023-01-09T18:24:25;6.50;99.90
38910;DHT22;24676;51.360;12.354;2023-01-09T18:27:09;6.50;99.90
38910;DHT22;24676;51.360;12.354;2023-01-09T18:29:53;6.50;99.90
38910;DHT22;24676;51.360;12.354;2023-01-09T18:32:39;6.50;99.90
38910;DHT22;24676;51.360;12.354;2023-01-09T18:35:24;6.40;99.90
38910;DHT22;24676;51.360;12.354;2023-01-09T18:38:09;6.40;99.90
38910;DHT22;24676;51.360;12.354;2023-01-09T18:40:58;6.40;99.90
38910;DHT22;24676;51.360;12.354;2023-01-09T18:43:42;6.30;99.90
38910;DHT22;24676;51.360;12.354;2023-01-09T18:46:27;6.30;99.90
38910;DHT22;24676;51.360;12.354;2023-01-09T18:49:15;6.30;99.90
38910;DHT22;24676;51.360;12.354;2023-01-09T18:51:59;6.20;99.90
38910;DHT22;24676;51.360;12.354;2023-01-09T18:54:43;6.20;99.90
38910;DHT22;24676;51.360;12.354;2023-01-09T18:57:27;6.20;99.90
38910;DHT22;24676;51.360;12.354;2023-01-09T19:00:12;6.10;99.90
38910;DHT22;24676;51.360;12.354;2023-01-09T19:02:56;6.10;99.90
38910;DHT22;24676;51.360;12.354;2023-01-09T19:05:41;6.10;99.90
38910;DHT22;24676;51.360;12.354;2023-01-09T19:08:28;6.10;99.90
38910;DHT22;24676;51.360;12.354;2023-01-09T19:11:13;6.10;99.90
38910;DHT22;24676;51.360;12.354;2023-01-09T19:13:57;6.10;99.90
38910;DHT22;24676;51.360;12.354;2023-01-09T19:16:41;6.10;99.90
38910;DHT22;24676;51.360;12.354;2023-01-09T19:19:26;6.00;99.90
38910;DHT22;24676;51.360;12.354;2023-01-09T19:22:13;6.00;99.90
38910;DHT22;24676;51.360;12.354;2023-01-09T19:24:58;5.90;99.90
38910;DHT22;24676;51.360;12.354;2023-01-09T19:27:42;5.80;99.90
38910;DHT22;24676;51.360;12.354;2023-01-09T19:30:27;5.70;99.90
38910;DHT22;24676;51.360;12.354;2023-01-09T19:33:11;5.60;99.90
38910;DHT22;24676;51.360;12.354;2023-01-09T19:35:56;5.60;99.90
38910;DHT22;24676;51.360;12.354;2023-01-09T19:38:40;5.50;99.90
38910;DHT22;24676;51.360;12.354;2023-01-09T19:41:25;5.50;99.90